sensor_id;sensor_type;location;lat;lon;timestamp;P1;durP1;ratioP1;P2;durP2;ratioP2
22705;SDS011;11520;51.198;4.468;2023-06-14T00:01:20;10.00;;;5.22;;
22705;SDS011;11520;51.198;4.468;2023-06-14T00:03:47;6.57;;;5.28;;
22705;SDS011;11520;51.198;4.468;2023-06-14T00:06:14;11.20;;;5.80;;
22705;SDS011;11520;51.198;4.468;2023-06-14T00:08:39;8.55;;;5.38;;
22705;SDS011;11520;51.198;4.468;2023-06-14T00:11:05;10.40;;;6.43;;
22705;SDS011;11520;51.198;4.468;2023-06-14T00:13:31;11.50;;;6.20;;
22705;SDS011;11520;51.198;4.468;2023-06-14T00:15:58;8.40;;;5.63;;
22705;SDS011;11520;51.198;4.468;2023-06-14T00:18:23;11.30;;;6.55;;
22705;SDS011;11520;51.198;4.468;2023-06-14T00:20:51;7.60;;;5.50;;
22705;SDS011;11520;51.198;4.468;2023-06-14T00:23:18;11.88;;;6.03;;
22705;SDS011;11520;51.198;4.468;2023-06-14T00:25:44;9.18;;;5.70;;
22705;SDS011;11520;51.198;4.468;2023-06-14T00:28:10;7.65;;;5.93;;
22705;SDS011;11520;51.198;4.468;2023-06-14T00:30:42;9.85;;;5.88;;
22705;SDS011;11520;51.198;4.468;2023-06-14T00:33:33;9.45;;;5.93;;
22705;SDS011;11520;51.198;4.468;2023-06-14T00:36:05;9.95;;;6.03;;
22705;SDS011;11520;51.198;4.468;2023-06-14T00:38:31;11.13;;;6.75;;
22705;SDS011;11520;51.198;4.468;2023-06-14T00:40:57;9.07;;;6.35;;
22705;SDS011;11520;51.198;4.468;2023-06-14T00:43:22;7.72;;;6.18;;
22705;SDS011;11520;51.198;4.468;2023-06-14T00:45:48;11.60;;;6.80;;
22705;SDS011;11520;51.198;4.468;2023-06-14T00:48:14;10.23;;;5.95;;
22705;SDS011;11520;51.198;4.468;2023-06-14T00:50:40;10.23;;;5.80;;
22705;SDS011;11520;51.198;4.468;2023-06-14T00:53:06;8.95;;;6.40;;
22705;SDS011;11520;51.198;4.468;2023-06-14T00:55:32;9.55;;;6.80;;
22705;SDS011;11520;51.198;4.468;2023-06-14T00:57:59;11.57;;;6.57;;
22705;SDS011;11520;51.198;4.468;2023-06-14T01:00:25;11.73;;;6.40;;
22705;SDS011;11520;51.198;4.468;2023-06-14T01:02:53;12.55;;;6.82;;
22705;SDS011;11520;51.198;4.468;2023-06-14T01:05:20;10.55;;;6.10;;
22705;SDS011;11520;51.198;4.468;2023-06-14T01:08:00;8.88;;;5.90;;
22705;SDS011;11520;51.198;4.468;2023-06-14T01:10:53;9.13;;;6.15;;
22705;SDS011;11520;51.198;4.468;2023-06-14T01:13:36;9.43;;;6.18;;
22705;SDS011;11520;51.198;4.468;2023-06-14T01:16:05;11.85;;;6.38;;
22705;SDS011;11520;51.198;4.468;2023-06-14T01:18:32;10.13;;;5.78;;
22705;SDS011;11520;51.198;4.468;2023-06-14T01:20:59;9.10;;;6.10;;
22705;SDS011;11520;51.198;4.468;2023-06-14T01:23:30;8.85;;;6.28;;
22705;SDS011;11520;51.198;4.468;2023-06-14T01:25:58;10.48;;;6.55;;
22705;SDS011;11520;51.198;4.468;2023-06-14T01:28:25;9.30;;;6.35;;
22705;SDS011;11520;51.198;4.468;2023-06-14T01:30:57;9.32;;;5.78;;
22705;SDS011;11520;51.198;4.468;2023-06-14T01:33:28;6.82;;;5.25;;
22705;SDS011;11520;51.198;4.468;2023-06-14T01:35:55;8.70;;;5.43;;
22705;SDS011;11520;51.198;4.468;2023-06-14T01:38:22;8.45;;;5.55;;
22705;SDS011;11520;51.198;4.468;2023-06-14T01:40:49;8.50;;;5.03;;
22705;SDS011;11520;51.198;4.468;2023-06-14T01:43:18;8.65;;;5.55;;
22705;SDS011;11520;51.198;4.468;2023-06-14T01:45:45;8.52;;;5.75;;
22705;SDS011;11520;51.198;4.468;2023-06-14T01:48:13;8.77;;;5.30;;
22705;SDS011;11520;51.198;4.468;2023-06-14T01:50:40;10.02;;;5.18;;
22705;SDS011;11520;51.198;4.468;2023-06-14T01:53:07;11.93;;;5.65;;
22705;SDS011;11520;51.198;4.468;2023-06-14T01:55:33;8.10;;;5.45;;
22705;SDS011;11520;51.198;4.468;2023-06-14T01:58:02;8.23;;;5.07;;
22705;SDS011;11520;51.198;4.468;2023-06-14T02:00:28;8.55;;;5.45;;
22705;SDS011;11520;51.198;4.468;2023-06-14T02:02:54;8.05;;;5.05;;
22705;SDS011;11520;51.198;4.468;2023-06-14T02:05:21;9.15;;;5.07;;
22705;SDS011;11520;51.198;4.468;2023-06-14T02:07:47;14.10;;;5.65;;
22705;SDS011;11520;51.198;4.468;2023-06-14T02:10:13;9.30;;;5.43;;
22705;SDS011;11520;51.198;4.468;2023-06-14T02:12:40;11.13;;;5.90;;
22705;SDS011;11520;51.198;4.468;2023-06-14T02:15:06;9.95;;;5.53;;
22705;SDS011;11520;51.198;4.468;2023-06-14T02:17:32;8.38;;;5.53;;
22705;SDS011;11520;51.198;4.468;2023-06-14T02:19:58;5.97;;;4.82;;
22705;SDS011;11520;51.198;4.468;2023-06-14T02:22:24;9.02;;;5.00;;
22705;SDS011;11520;51.198;4.468;2023-06-14T02:24:50;9.55;;;4.40;;
22705;SDS011;11520;51.198;4.468;2023-06-14T02:27:16;6.38;;;4.63;;
22705;SDS011;11520;51.198;4.468;2023-06-14T02:29:42;9.70;;;4.75;;
22705;SDS011;11520;51.198;4.468;2023-06-14T02:32:08;9.50;;;5.05;;
22705;SDS011;11520;51.198;4.468;2023-06-14T02:34:34;5.55;;;4.95;;
22705;SDS011;11520;51.198;4.468;2023-06-14T02:37:00;11.75;;;5.32;;
22705;SDS011;11520;51.198;4.468;2023-06-14T02:39:28;10.00;;;4.88;;
22705;SDS011;11520;51.198;4.468;2023-06-14T02:41:53;9.32;;;5.70;;
22705;SDS011;11520;51.198;4.468;2023-06-14T02:44:19;10.15;;;5.30;;
22705;SDS011;11520;51.198;4.468;2023-06-14T02:46:48;10.02;;;4.57;;
22705;SDS011;11520;51.198;4.468;2023-06-14T02:49:14;10.35;;;5.03;;
22705;SDS011;11520;51.198;4.468;2023-06-14T02:51:40;9.48;;;5.00;;
22705;SDS011;11520;51.198;4.468;2023-06-14T02:54:05;8.68;;;5.13;;
22705;SDS011;11520;51.198;4.468;2023-06-14T02:56:31;6.40;;;4.95;;
22705;SDS011;11520;51.198;4.468;2023-06-14T02:58:56;6.70;;;4.72;;
22705;SDS011;11520;51.198;4.468;2023-06-14T03:01:25;7.57;;;4.63;;
22705;SDS011;11520;51.198;4.468;2023-06-14T03:03:59;5.30;;;4.30;;
22705;SDS011;11520;51.198;4.468;2023-06-14T03:06:26;6.80;;;4.53;;
22705;SDS011;11520;51.198;4.468;2023-06-14T03:08:54;7.28;;;4.57;;
22705;SDS011;11520;51.198;4.468;2023-06-14T03:11:24;7.20;;;4.95;;
22705;SDS011;11520;51.198;4.468;2023-06-14T03:13:50;7.10;;;4.38;;
22705;SDS011;11520;51.198;4.468;2023-06-14T03:16:16;7.78;;;4.55;;
22705;SDS011;11520;51.198;4.468;2023-06-14T03:18:46;6.65;;;4.65;;
22705;SDS011;11520;51.198;4.468;2023-06-14T03:21:12;8.93;;;5.32;;
22705;SDS011;11520;51.198;4.468;2023-06-14T03:23:38;6.95;;;4.78;;
22705;SDS011;11520;51.198;4.468;2023-06-14T03:26:03;6.60;;;4.80;;
22705;SDS011;11520;51.198;4.468;2023-06-14T03:28:29;12.38;;;5.30;;
22705;SDS011;11520;51.198;4.468;2023-06-14T03:30:55;7.38;;;4.60;;
22705;SDS011;11520;51.198;4.468;2023-06-14T03:33:21;10.82;;;5.10;;
22705;SDS011;11520;51.198;4.468;2023-06-14T03:35:46;6.45;;;4.50;;
22705;SDS011;11520;51.198;4.468;2023-06-14T03:38:12;8.20;;;4.88;;
22705;SDS011;11520;51.198;4.468;2023-06-14T03:40:38;8.05;;;4.68;;
22705;SDS011;11520;51.198;4.468;2023-06-14T03:43:03;7.05;;;4.40;;
22705;SDS011;11520;51.198;4.468;2023-06-14T03:45:29;9.95;;;5.30;;
22705;SDS011;11520;51.198;4.468;2023-06-14T03:47:55;8.60;;;4.97;;
22705;SDS011;11520;51.198;4.468;2023-06-14T03:50:21;8.63;;;4.63;;
22705;SDS011;11520;51.198;4.468;2023-06-14T03:52:48;6.57;;;4.50;;
22705;SDS011;11520;51.198;4.468;2023-06-14T03:55:13;5.80;;;4.60;;
22705;SDS011;11520;51.198;4.468;2023-06-14T03:57:41;8.77;;;4.68;;
22705;SDS011;11520;51.198;4.468;2023-06-14T04:00:07;11.63;;;5.22;;
22705;SDS011;11520;51.198;4.468;2023-06-14T04:02:34;7.53;;;4.70;;
22705;SDS011;11520;51.198;4.468;2023-06-14T04:05:01;8.48;;;5.35;;
22705;SDS011;11520;51.198;4.468;2023-06-14T04:07:28;8.27;;;4.97;;
22705;SDS011;11520;51.198;4.468;2023-06-14T04:09:55;9.73;;;4.63;;
22705;SDS011;11520;51.198;4.468;2023-06-14T04:12:20;10.93;;;4.97;;
22705;SDS011;11520;51.198;4.468;2023-06-14T04:14:46;15.43;;;4.82;;
22705;SDS011;11520;51.198;4.468;2023-06-14T04:17:11;8.77;;;4.65;;
22705;SDS011;11520;51.198;4.468;2023-06-14T04:19:37;12.13;;;5.18;;
22705;SDS011;11520;51.198;4.468;2023-06-14T04:22:03;9.00;;;4.82;;
22705;SDS011;11520;51.198;4.468;2023-06-14T04:24:28;7.15;;;4.80;;
22705;SDS011;11520;51.198;4.468;2023-06-14T04:26:56;9.25;;;4.60;;
22705;SDS011;11520;51.198;4.468;2023-06-14T04:29:26;9.02;;;4.63;;
22705;SDS011;11520;51.198;4.468;2023-06-14T04:31:54;7.50;;;3.85;;
22705;SDS011;11520;51.198;4.468;2023-06-14T04:34:23;7.47;;;4.90;;
22705;SDS011;11520;51.198;4.468;2023-06-14T04:36:54;12.15;;;4.70;;
22705;SDS011;11520;51.198;4.468;2023-06-14T04:39:21;9.70;;;5.32;;
22705;SDS011;11520;51.198;4.468;2023-06-14T04:41:47;19.13;;;5.60;;
22705;SDS011;11520;51.198;4.468;2023-06-14T04:44:17;10.70;;;4.78;;
22705;SDS011;11520;51.198;4.468;2023-06-14T04:46:44;8.00;;;4.90;;
22705;SDS011;11520;51.198;4.468;2023-06-14T04:49:17;10.30;;;4.97;;
22705;SDS011;11520;51.198;4.468;2023-06-14T04:51:43;9.32;;;4.95;;
22705;SDS011;11520;51.198;4.468;2023-06-14T04:54:09;8.07;;;4.70;;
22705;SDS011;11520;51.198;4.468;2023-06-14T04:56:39;11.15;;;5.32;;
22705;SDS011;11520;51.198;4.468;2023-06-14T04:59:05;8.82;;;4.57;;
22705;SDS011;11520;51.198;4.468;2023-06-14T05:01:31;6.93;;;4.70;;
22705;SDS011;11520;51.198;4.468;2023-06-14T05:03:58;9.75;;;5.03;;
22705;SDS011;11520;51.198;4.468;2023-06-14T05:06:24;7.45;;;4.63;;
22705;SDS011;11520;51.198;4.468;2023-06-14T05:08:50;5.38;;;4.47;;
22705;SDS011;11520;51.198;4.468;2023-06-14T05:11:15;5.70;;;4.60;;
22705;SDS011;11520;51.198;4.468;2023-06-14T05:13:44;12.05;;;5.25;;
22705;SDS011;11520;51.198;4.468;2023-06-14T05:16:10;9.38;;;4.55;;
22705;SDS011;11520;51.198;4.468;2023-06-14T05:18:36;12.85;;;4.95;;
22705;SDS011;11520;51.198;4.468;2023-06-14T05:21:03;11.60;;;4.50;;
22705;SDS011;11520;51.198;4.468;2023-06-14T05:23:30;14.88;;;5.20;;
22705;SDS011;11520;51.198;4.468;2023-06-14T05:25:56;8.82;;;5.07;;
22705;SDS011;11520;51.198;4.468;2023-06-14T05:28:22;10.48;;;4.75;;
22705;SDS011;11520;51.198;4.468;2023-06-14T05:30:48;15.30;;;5.50;;
22705;SDS011;11520;51.198;4.468;2023-06-14T05:33:14;6.60;;;5.20;;
22705;SDS011;11520;51.198;4.468;2023-06-14T05:35:40;10.05;;;4.97;;
22705;SDS011;11520;51.198;4.468;2023-06-14T05:38:05;11.20;;;4.72;;
22705;SDS011;11520;51.198;4.468;2023-06-14T05:40:32;10.88;;;4.93;;
22705;SDS011;11520;51.198;4.468;2023-06-14T05:42:58;9.40;;;4.80;;
22705;SDS011;11520;51.198;4.468;2023-06-14T05:45:23;7.55;;;4.88;;
22705;SDS011;11520;51.198;4.468;2023-06-14T05:47:49;10.35;;;5.07;;
22705;SDS011;11520;51.198;4.468;2023-06-14T05:50:15;9.73;;;4.82;;
22705;SDS011;11520;51.198;4.468;2023-06-14T05:52:41;7.65;;;4.82;;
22705;SDS011;11520;51.198;4.468;2023-06-14T05:55:06;6.88;;;5.10;;
22705;SDS011;11520;51.198;4.468;2023-06-14T05:57:32;11.25;;;5.18;;
22705;SDS011;11520;51.198;4.468;2023-06-14T05:59:58;7.60;;;4.95;;
22705;SDS011;11520;51.198;4.468;2023-06-14T06:02:23;9.38;;;5.00;;
22705;SDS011;11520;51.198;4.468;2023-06-14T06:04:49;8.15;;;4.60;;
22705;SDS011;11520;51.198;4.468;2023-06-14T06:07:15;9.10;;;4.70;;
22705;SDS011;11520;51.198;4.468;2023-06-14T06:09:41;10.93;;;4.90;;
22705;SDS011;11520;51.198;4.468;2023-06-14T06:12:07;9.15;;;5.25;;
22705;SDS011;11520;51.198;4.468;2023-06-14T06:14:32;13.43;;;5.00;;
22705;SDS011;11520;51.198;4.468;2023-06-14T06:16:58;10.95;;;4.53;;
22705;SDS011;11520;51.198;4.468;2023-06-14T06:19:24;15.23;;;5.43;;
22705;SDS011;11520;51.198;4.468;2023-06-14T06:21:49;6.97;;;4.97;;
22705;SDS011;11520;51.198;4.468;2023-06-14T06:24:19;8.63;;;5.38;;
22705;SDS011;11520;51.198;4.468;2023-06-14T06:26:45;6.45;;;4.70;;
22705;SDS011;11520;51.198;4.468;2023-06-14T06:29:11;6.85;;;5.07;;
22705;SDS011;11520;51.198;4.468;2023-06-14T06:31:37;7.80;;;5.00;;
22705;SDS011;11520;51.198;4.468;2023-06-14T06:34:03;8.90;;;4.43;;
22705;SDS011;11520;51.198;4.468;2023-06-14T06:36:28;6.72;;;4.70;;
22705;SDS011;11520;51.198;4.468;2023-06-14T06:38:54;8.20;;;4.57;;
22705;SDS011;11520;51.198;4.468;2023-06-14T06:41:20;6.43;;;4.53;;
22705;SDS011;11520;51.198;4.468;2023-06-14T06:43:46;10.05;;;4.20;;
22705;SDS011;11520;51.198;4.468;2023-06-14T06:46:11;9.18;;;4.80;;
22705;SDS011;11520;51.198;4.468;2023-06-14T06:48:38;10.27;;;4.43;;
22705;SDS011;11520;51.198;4.468;2023-06-14T06:51:04;9.27;;;4.93;;
22705;SDS011;11520;51.198;4.468;2023-06-14T06:53:31;6.05;;;4.18;;
22705;SDS011;11520;51.198;4.468;2023-06-14T06:55:56;12.55;;;4.68;;
22705;SDS011;11520;51.198;4.468;2023-06-14T06:58:23;7.70;;;4.32;;
22705;SDS011;11520;51.198;4.468;2023-06-14T07:00:49;8.55;;;4.05;;
22705;SDS011;11520;51.198;4.468;2023-06-14T07:03:15;9.15;;;3.90;;
22705;SDS011;11520;51.198;4.468;2023-06-14T07:05:41;8.57;;;4.18;;
22705;SDS011;11520;51.198;4.468;2023-06-14T07:08:06;8.43;;;4.00;;
22705;SDS011;11520;51.198;4.468;2023-06-14T07:10:32;7.72;;;4.38;;
22705;SDS011;11520;51.198;4.468;2023-06-14T07:12:58;12.65;;;4.25;;
22705;SDS011;11520;51.198;4.468;2023-06-14T07:15:24;13.57;;;4.50;;
22705;SDS011;11520;51.198;4.468;2023-06-14T07:17:49;10.73;;;4.50;;
22705;SDS011;11520;51.198;4.468;2023-06-14T07:20:15;9.23;;;4.82;;
22705;SDS011;11520;51.198;4.468;2023-06-14T07:22:41;7.30;;;4.25;;
22705;SDS011;11520;51.198;4.468;2023-06-14T07:25:09;7.93;;;4.47;;
22705;SDS011;11520;51.198;4.468;2023-06-14T07:27:38;10.90;;;4.65;;
22705;SDS011;11520;51.198;4.468;2023-06-14T07:30:24;15.35;;;5.30;;
22705;SDS011;11520;51.198;4.468;2023-06-14T07:32:52;8.15;;;3.85;;
22705;SDS011;11520;51.198;4.468;2023-06-14T07:35:18;10.00;;;4.57;;
22705;SDS011;11520;51.198;4.468;2023-06-14T07:37:44;10.48;;;4.53;;
22705;SDS011;11520;51.198;4.468;2023-06-14T07:40:12;7.05;;;4.80;;
22705;SDS011;11520;51.198;4.468;2023-06-14T07:42:38;10.95;;;4.65;;
22705;SDS011;11520;51.198;4.468;2023-06-14T07:45:03;7.82;;;4.53;;
22705;SDS011;11520;51.198;4.468;2023-06-14T07:47:29;8.48;;;4.40;;
22705;SDS011;11520;51.198;4.468;2023-06-14T07:49:55;7.10;;;4.28;;
22705;SDS011;11520;51.198;4.468;2023-06-14T07:52:21;8.68;;;4.35;;
22705;SDS011;11520;51.198;4.468;2023-06-14T07:54:47;8.05;;;4.45;;
22705;SDS011;11520;51.198;4.468;2023-06-14T07:57:12;10.45;;;4.38;;
22705;SDS011;11520;51.198;4.468;2023-06-14T07:59:38;11.02;;;4.60;;
22705;SDS011;11520;51.198;4.468;2023-06-14T08:02:04;11.32;;;4.38;;
22705;SDS011;11520;51.198;4.468;2023-06-14T08:04:29;11.45;;;4.57;;
22705;SDS011;11520;51.198;4.468;2023-06-14T08:06:56;5.70;;;4.18;;
22705;SDS011;11520;51.198;4.468;2023-06-14T08:09:21;8.88;;;5.07;;
22705;SDS011;11520;51.198;4.468;2023-06-14T08:11:48;10.98;;;4.38;;
22705;SDS011;11520;51.198;4.468;2023-06-14T08:14:13;8.73;;;3.90;;
22705;SDS011;11520;51.198;4.468;2023-06-14T08:16:39;11.65;;;4.32;;
22705;SDS011;11520;51.198;4.468;2023-06-14T08:19:05;9.00;;;5.10;;
22705;SDS011;11520;51.198;4.468;2023-06-14T08:21:31;8.02;;;4.97;;
22705;SDS011;11520;51.198;4.468;2023-06-14T08:23:58;8.88;;;4.80;;
22705;SDS011;11520;51.198;4.468;2023-06-14T08:26:24;10.32;;;4.63;;
22705;SDS011;11520;51.198;4.468;2023-06-14T08:28:54;7.40;;;5.00;;
22705;SDS011;11520;51.198;4.468;2023-06-14T08:31:20;9.80;;;4.75;;
22705;SDS011;11520;51.198;4.468;2023-06-14T08:33:45;10.98;;;5.60;;
22705;SDS011;11520;51.198;4.468;2023-06-14T08:36:11;9.32;;;4.90;;
22705;SDS011;11520;51.198;4.468;2023-06-14T08:38:37;10.43;;;4.72;;
22705;SDS011;11520;51.198;4.468;2023-06-14T08:41:04;18.73;;;4.97;;
22705;SDS011;11520;51.198;4.468;2023-06-14T08:43:31;6.50;;;4.40;;
22705;SDS011;11520;51.198;4.468;2023-06-14T08:46:02;7.70;;;4.43;;
22705;SDS011;11520;51.198;4.468;2023-06-14T08:48:29;10.50;;;4.77;;
22705;SDS011;11520;51.198;4.468;2023-06-14T08:51:01;11.02;;;4.90;;
22705;SDS011;11520;51.198;4.468;2023-06-14T08:53:30;8.50;;;4.78;;
22705;SDS011;11520;51.198;4.468;2023-06-14T08:55:59;8.52;;;4.68;;
22705;SDS011;11520;51.198;4.468;2023-06-14T08:58:27;10.48;;;4.97;;
22705;SDS011;11520;51.198;4.468;2023-06-14T09:00:56;12.55;;;4.88;;
22705;SDS011;11520;51.198;4.468;2023-06-14T09:03:23;9.45;;;4.78;;
22705;SDS011;11520;51.198;4.468;2023-06-14T09:05:55;7.82;;;4.38;;
22705;SDS011;11520;51.198;4.468;2023-06-14T09:08:24;7.50;;;4.25;;
22705;SDS011;11520;51.198;4.468;2023-06-14T09:10:50;6.78;;;4.57;;
22705;SDS011;11520;51.198;4.468;2023-06-14T09:13:16;9.02;;;4.10;;
22705;SDS011;11520;51.198;4.468;2023-06-14T09:15:42;8.95;;;4.50;;
22705;SDS011;11520;51.198;4.468;2023-06-14T09:18:08;7.40;;;4.03;;
22705;SDS011;11520;51.198;4.468;2023-06-14T09:20:34;10.10;;;4.03;;
22705;SDS011;11520;51.198;4.468;2023-06-14T09:23:00;7.22;;;4.30;;
22705;SDS011;11520;51.198;4.468;2023-06-14T09:25:27;8.05;;;4.10;;
22705;SDS011;11520;51.198;4.468;2023-06-14T09:27:53;8.80;;;4.93;;
22705;SDS011;11520;51.198;4.468;2023-06-14T09:30:19;6.95;;;4.00;;
22705;SDS011;11520;51.198;4.468;2023-06-14T09:32:45;10.40;;;4.20;;
22705;SDS011;11520;51.198;4.468;2023-06-14T09:35:11;12.23;;;4.10;;
22705;SDS011;11520;51.198;4.468;2023-06-14T09:37:37;11.88;;;4.50;;
22705;SDS011;11520;51.198;4.468;2023-06-14T09:40:03;5.53;;;4.15;;
22705;SDS011;11520;51.198;4.468;2023-06-14T09:42:32;6.60;;;3.65;;
22705;SDS011;11520;51.198;4.468;2023-06-14T09:45:00;6.53;;;3.63;;
22705;SDS011;11520;51.198;4.468;2023-06-14T09:47:28;5.85;;;3.75;;
22705;SDS011;11520;51.198;4.468;2023-06-14T09:49:53;6.75;;;3.95;;
22705;SDS011;11520;51.198;4.468;2023-06-14T09:52:21;7.90;;;3.58;;
22705;SDS011;11520;51.198;4.468;2023-06-14T09:54:48;10.27;;;3.40;;
22705;SDS011;11520;51.198;4.468;2023-06-14T09:57:15;10.32;;;3.80;;
22705;SDS011;11520;51.198;4.468;2023-06-14T09:59:46;5.10;;;3.40;;
22705;SDS011;11520;51.198;4.468;2023-06-14T10:02:16;5.05;;;3.83;;
22705;SDS011;11520;51.198;4.468;2023-06-14T10:04:52;8.45;;;3.22;;
22705;SDS011;11520;51.198;4.468;2023-06-14T10:07:25;10.40;;;3.85;;
22705;SDS011;11520;51.198;4.468;2023-06-14T10:09:55;7.70;;;3.38;;
22705;SDS011;11520;51.198;4.468;2023-06-14T10:12:20;5.30;;;2.83;;
22705;SDS011;11520;51.198;4.468;2023-06-14T10:14:50;4.45;;;2.88;;
22705;SDS011;11520;51.198;4.468;2023-06-14T10:17:24;18.70;;;3.83;;
22705;SDS011;11520;51.198;4.468;2023-06-14T10:22:59;9.65;;;3.42;;
22705;SDS011;11520;51.198;4.468;2023-06-14T10:25:56;5.38;;;3.20;;
22705;SDS011;11520;51.198;4.468;2023-06-14T10:28:22;7.57;;;2.97;;
22705;SDS011;11520;51.198;4.468;2023-06-14T10:33:30;8.60;;;2.97;;
22705;SDS011;11520;51.198;4.468;2023-06-14T10:41:51;7.85;;;3.67;;
22705;SDS011;11520;51.198;4.468;2023-06-14T10:46:47;5.18;;;3.05;;
22705;SDS011;11520;51.198;4.468;2023-06-14T10:49:17;12.65;;;3.22;;
22705;SDS011;11520;51.198;4.468;2023-06-14T10:51:50;6.75;;;3.15;;
22705;SDS011;11520;51.198;4.468;2023-06-14T10:54:16;7.18;;;2.80;;
22705;SDS011;11520;51.198;4.468;2023-06-14T10:59:14;8.80;;;2.97;;
22705;SDS011;11520;51.198;4.468;2023-06-14T11:01:52;7.57;;;3.22;;
22705;SDS011;11520;51.198;4.468;2023-06-14T11:04:46;5.30;;;3.15;;
22705;SDS011;11520;51.198;4.468;2023-06-14T11:07:29;6.00;;;2.70;;
22705;SDS011;11520;51.198;4.468;2023-06-14T11:12:48;6.10;;;2.88;;
22705;SDS011;11520;51.198;4.468;2023-06-14T11:15:15;7.95;;;3.08;;
22705;SDS011;11520;51.198;4.468;2023-06-14T11:17:53;6.95;;;2.92;;
22705;SDS011;11520;51.198;4.468;2023-06-14T11:20:19;5.68;;;2.97;;
22705;SDS011;11520;51.198;4.468;2023-06-14T11:22:45;4.65;;;2.80;;
22705;SDS011;11520;51.198;4.468;2023-06-14T11:25:13;5.80;;;2.67;;
22705;SDS011;11520;51.198;4.468;2023-06-14T11:27:43;3.60;;;2.65;;
22705;SDS011;11520;51.198;4.468;2023-06-14T11:30:09;9.23;;;2.70;;
22705;SDS011;11520;51.198;4.468;2023-06-14T11:32:35;4.75;;;2.65;;
22705;SDS011;11520;51.198;4.468;2023-06-14T11:35:02;5.60;;;2.90;;
22705;SDS011;11520;51.198;4.468;2023-06-14T11:37:30;6.10;;;3.08;;
22705;SDS011;11520;51.198;4.468;2023-06-14T11:39:58;11.35;;;3.03;;
22705;SDS011;11520;51.198;4.468;2023-06-14T11:42:24;6.80;;;2.58;;
22705;SDS011;11520;51.198;4.468;2023-06-14T11:44:53;5.80;;;2.92;;
22705;SDS011;11520;51.198;4.468;2023-06-14T11:47:19;10.38;;;3.60;;
22705;SDS011;11520;51.198;4.468;2023-06-14T11:49:45;10.30;;;2.92;;
22705;SDS011;11520;51.198;4.468;2023-06-14T11:52:11;7.22;;;2.83;;
22705;SDS011;11520;51.198;4.468;2023-06-14T11:54:37;6.40;;;2.65;;
22705;SDS011;11520;51.198;4.468;2023-06-14T11:57:05;5.55;;;2.38;;
22705;SDS011;11520;51.198;4.468;2023-06-14T11:59:38;5.13;;;2.55;;
22705;SDS011;11520;51.198;4.468;2023-06-14T12:02:05;6.15;;;2.65;;
22705;SDS011;11520;51.198;4.468;2023-06-14T12:04:32;6.68;;;2.90;;
22705;SDS011;11520;51.198;4.468;2023-06-14T12:07:08;10.02;;;3.05;;
22705;SDS011;11520;51.198;4.468;2023-06-14T12:09:40;8.00;;;3.00;;
22705;SDS011;11520;51.198;4.468;2023-06-14T12:12:08;5.63;;;2.85;;
22705;SDS011;11520;51.198;4.468;2023-06-14T12:14:34;9.40;;;3.22;;
22705;SDS011;11520;51.198;4.468;2023-06-14T12:17:06;11.32;;;2.80;;
22705;SDS011;11520;51.198;4.468;2023-06-14T12:19:32;4.22;;;2.38;;
22705;SDS011;11520;51.198;4.468;2023-06-14T12:22:01;8.23;;;2.47;;
22705;SDS011;11520;51.198;4.468;2023-06-14T12:24:29;6.10;;;2.53;;
22705;SDS011;11520;51.198;4.468;2023-06-14T12:26:57;11.38;;;2.63;;
22705;SDS011;11520;51.198;4.468;2023-06-14T12:29:28;8.25;;;3.40;;
22705;SDS011;11520;51.198;4.468;2023-06-14T12:31:54;8.13;;;2.70;;
22705;SDS011;11520;51.198;4.468;2023-06-14T12:34:22;5.75;;;2.33;;
22705;SDS011;11520;51.198;4.468;2023-06-14T12:36:51;4.82;;;2.42;;
22705;SDS011;11520;51.198;4.468;2023-06-14T12:39:18;8.07;;;2.70;;
22705;SDS011;11520;51.198;4.468;2023-06-14T12:41:44;2.80;;;2.30;;
22705;SDS011;11520;51.198;4.468;2023-06-14T12:44:10;7.60;;;2.33;;
22705;SDS011;11520;51.198;4.468;2023-06-14T12:46:37;6.40;;;2.55;;
22705;SDS011;11520;51.198;4.468;2023-06-14T12:49:04;4.45;;;2.13;;
22705;SDS011;11520;51.198;4.468;2023-06-14T12:51:31;7.13;;;2.17;;
22705;SDS011;11520;51.198;4.468;2023-06-14T12:53:57;7.07;;;1.95;;
22705;SDS011;11520;51.198;4.468;2023-06-14T12:56:22;4.00;;;1.83;;
22705;SDS011;11520;51.198;4.468;2023-06-14T12:58:48;4.25;;;2.03;;
22705;SDS011;11520;51.198;4.468;2023-06-14T13:01:14;5.10;;;1.90;;
22705;SDS011;11520;51.198;4.468;2023-06-14T13:03:39;1.52;;;1.40;;
22705;SDS011;11520;51.198;4.468;2023-06-14T13:06:05;3.58;;;1.40;;
22705;SDS011;11520;51.198;4.468;2023-06-14T13:08:30;14.35;;;2.47;;
22705;SDS011;11520;51.198;4.468;2023-06-14T13:10:56;2.47;;;1.38;;
22705;SDS011;11520;51.198;4.468;2023-06-14T13:13:22;3.42;;;1.40;;
22705;SDS011;11520;51.198;4.468;2023-06-14T13:15:48;5.20;;;1.52;;
22705;SDS011;11520;51.198;4.468;2023-06-14T13:18:14;7.18;;;1.60;;
22705;SDS011;11520;51.198;4.468;2023-06-14T13:20:40;4.22;;;1.17;;
22705;SDS011;11520;51.198;4.468;2023-06-14T13:23:08;2.20;;;1.10;;
22705;SDS011;11520;51.198;4.468;2023-06-14T13:25:35;6.32;;;1.52;;
22705;SDS011;11520;51.198;4.468;2023-06-14T13:28:01;4.00;;;1.17;;
22705;SDS011;11520;51.198;4.468;2023-06-14T13:30:30;4.35;;;1.30;;
22705;SDS011;11520;51.198;4.468;2023-06-14T13:32:56;1.60;;;1.20;;
22705;SDS011;11520;51.198;4.468;2023-06-14T13:35:22;9.60;;;1.65;;
22705;SDS011;11520;51.198;4.468;2023-06-14T13:37:49;3.95;;;1.02;;
22705;SDS011;11520;51.198;4.468;2023-06-14T13:40:14;4.85;;;1.10;;
22705;SDS011;11520;51.198;4.468;2023-06-14T13:42:40;3.42;;;1.15;;
22705;SDS011;11520;51.198;4.468;2023-06-14T13:45:07;4.38;;;1.45;;
22705;SDS011;11520;51.198;4.468;2023-06-14T13:47:33;5.00;;;1.42;;
22705;SDS011;11520;51.198;4.468;2023-06-14T13:49:59;6.68;;;1.65;;
22705;SDS011;11520;51.198;4.468;2023-06-14T13:52:25;3.00;;;1.40;;
22705;SDS011;11520;51.198;4.468;2023-06-14T13:54:51;1.80;;;1.50;;
22705;SDS011;11520;51.198;4.468;2023-06-14T13:57:17;3.03;;;1.23;;
22705;SDS011;11520;51.198;4.468;2023-06-14T13:59:43;2.50;;;1.50;;
22705;SDS011;11520;51.198;4.468;2023-06-14T14:02:10;6.40;;;1.58;;
22705;SDS011;11520;51.198;4.468;2023-06-14T14:04:36;2.45;;;1.48;;
22705;SDS011;11520;51.198;4.468;2023-06-14T14:07:03;3.72;;;1.52;;
22705;SDS011;11520;51.198;4.468;2023-06-14T14:09:29;1.45;;;1.13;;
22705;SDS011;11520;51.198;4.468;2023-06-14T14:11:55;4.45;;;1.35;;
22705;SDS011;11520;51.198;4.468;2023-06-14T14:14:21;9.05;;;1.95;;
22705;SDS011;11520;51.198;4.468;2023-06-14T14:16:48;10.82;;;1.73;;
22705;SDS011;11520;51.198;4.468;2023-06-14T14:19:16;6.57;;;2.22;;
22705;SDS011;11520;51.198;4.468;2023-06-14T14:21:44;3.45;;;1.40;;
22705;SDS011;11520;51.198;4.468;2023-06-14T14:24:10;5.85;;;1.60;;
22705;SDS011;11520;51.198;4.468;2023-06-14T14:26:35;5.10;;;2.00;;
22705;SDS011;11520;51.198;4.468;2023-06-14T14:29:01;4.25;;;1.67;;
22705;SDS011;11520;51.198;4.468;2023-06-14T14:31:27;3.50;;;1.48;;
22705;SDS011;11520;51.198;4.468;2023-06-14T14:33:53;5.13;;;1.50;;
22705;SDS011;11520;51.198;4.468;2023-06-14T14:36:19;2.50;;;1.25;;
22705;SDS011;11520;51.198;4.468;2023-06-14T14:38:45;3.45;;;1.40;;
22705;SDS011;11520;51.198;4.468;2023-06-14T14:41:12;5.35;;;1.55;;
22705;SDS011;11520;51.198;4.468;2023-06-14T14:43:38;5.38;;;1.35;;
22705;SDS011;11520;51.198;4.468;2023-06-14T14:46:04;2.97;;;1.45;;
22705;SDS011;11520;51.198;4.468;2023-06-14T14:48:31;10.80;;;1.88;;
22705;SDS011;11520;51.198;4.468;2023-06-14T14:50:57;2.15;;;1.40;;
22705;SDS011;11520;51.198;4.468;2023-06-14T14:53:22;5.38;;;2.10;;
22705;SDS011;11520;51.198;4.468;2023-06-14T14:55:48;7.78;;;2.03;;
22705;SDS011;11520;51.198;4.468;2023-06-14T14:58:14;3.83;;;1.60;;
22705;SDS011;11520;51.198;4.468;2023-06-14T15:00:44;3.53;;;1.35;;
22705;SDS011;11520;51.198;4.468;2023-06-14T15:03:10;3.50;;;1.27;;